sensor_id;sensor_type;location;lat;lon;timestamp;temperature;humidity
30244;DHT22;64022;53.652;9.792;2023-09-08T00:00:41;25.30;62.80
30244;DHT22;64022;53.652;9.792;2023-09-08T00:03:07;25.40;62.90
30244;DHT22;64022;53.652;9.792;2023-09-08T00:05:32;25.40;62.80
30244;DHT22;64022;53.652;9.792;2023-09-08T00:07:58;25.30;62.80
30244;DHT22;64022;53.652;9.792;2023-09-08T00:10:23;25.30;62.70
30244;DHT22;64022;53.652;9.792;2023-09-08T00:12:49;25.40;62.80
30244;DHT22;64022;53.652;9.792;2023-09-08T00:15:14;25.30;62.70
30244;DHT22;64022;53.652;9.792;2023-09-08T00:17:40;25.30;62.70
30244;DHT22;64022;53.652;9.792;2023-09-08T00:20:06;25.30;62.60
30244;DHT22;64022;53.652;9.792;2023-09-08T00:22:36;25.30;62.60
30244;DHT22;64022;53.652;9.792;2023-09-08T00:25:02;25.30;62.60
30244;DHT22;64022;53.652;9.792;2023-09-08T00:27:30;25.30;62.60
30244;DHT22;64022;53.652;9.792;2023-09-08T00:29:56;25.30;62.50
30244;DHT22;64022;53.652;9.792;2023-09-08T00:32:22;25.30;62.50
30244;DHT22;64022;53.652;9.792;2023-09-08T00:34:47;25.30;62.50
30244;DHT22;64022;53.652;9.792;2023-09-08T00:37:13;25.30;62.50
30244;DHT22;64022;53.652;9.792;2023-09-08T00:39:38;25.30;62.50
30244;DHT22;64022;53.652;9.792;2023-09-08T00:42:04;25.30;62.50
30244;DHT22;64022;53.652;9.792;2023-09-08T00:44:30;25.30;62.50
30244;DHT22;64022;53.652;9.792;2023-09-08T00:46:56;25.30;62.50
30244;DHT22;64022;53.652;9.792;2023-09-08T00:49:22;25.30;62.40
30244;DHT22;64022;53.652;9.792;2023-09-08T00:51:48;25.40;62.50
30244;DHT22;64022;53.652;9.792;2023-09-08T00:54:14;25.30;62.40
30244;DHT22;64022;53.652;9.792;2023-09-08T00:56:40;25.40;62.40
30244;DHT22;64022;53.652;9.792;2023-09-08T00:59:06;25.40;62.30
30244;DHT22;64022;53.652;9.792;2023-09-08T01:01:32;25.40;62.30
30244;DHT22;64022;53.652;9.792;2023-09-08T01:04:00;25.40;62.20
30244;DHT22;64022;53.652;9.792;2023-09-08T01:06:26;25.30;62.00
30244;DHT22;64022;53.652;9.792;2023-09-08T01:08:53;25.40;61.90
30244;DHT22;64022;53.652;9.792;2023-09-08T01:11:20;25.30;61.80
30244;DHT22;64022;53.652;9.792;2023-09-08T01:13:46;25.30;61.70
30244;DHT22;64022;53.652;9.792;2023-09-08T01:16:12;25.30;61.60
30244;DHT22;64022;53.652;9.792;2023-09-08T01:18:38;25.30;61.60
30244;DHT22;64022;53.652;9.792;2023-09-08T01:21:29;25.30;61.60
30244;DHT22;64022;53.652;9.792;2023-09-08T01:26:48;25.30;61.60
30244;DHT22;64022;53.652;9.792;2023-09-08T01:29:15;25.30;61.50
30244;DHT22;64022;53.652;9.792;2023-09-08T01:31:42;25.30;62.00
30244;DHT22;64022;53.652;9.792;2023-09-08T01:34:08;25.30;61.30
30244;DHT22;64022;53.652;9.792;2023-09-08T01:36:34;25.30;61.30
30244;DHT22;64022;53.652;9.792;2023-09-08T01:39:03;25.30;61.30
30244;DHT22;64022;53.652;9.792;2023-09-08T01:41:29;25.30;61.30
30244;DHT22;64022;53.652;9.792;2023-09-08T01:43:56;25.30;61.30
30244;DHT22;64022;53.652;9.792;2023-09-08T01:46:23;25.30;61.30
30244;DHT22;64022;53.652;9.792;2023-09-08T01:48:48;25.30;61.30
30244;DHT22;64022;53.652;9.792;2023-09-08T01:51:14;25.30;61.30
30244;DHT22;64022;53.652;9.792;2023-09-08T01:53:39;25.30;61.20
30244;DHT22;64022;53.652;9.792;2023-09-08T01:56:05;25.30;61.10
30244;DHT22;64022;53.652;9.792;2023-09-08T01:58:30;25.30;61.10
30244;DHT22;64022;53.652;9.792;2023-09-08T02:00:57;25.40;61.10
30244;DHT22;64022;53.652;9.792;2023-09-08T02:03:27;25.30;60.90
30244;DHT22;64022;53.652;9.792;2023-09-08T02:05:52;25.30;60.80
30244;DHT22;64022;53.652;9.792;2023-09-08T02:08:19;25.30;60.80
30244;DHT22;64022;53.652;9.792;2023-09-08T02:10:44;25.30;60.80
30244;DHT22;64022;53.652;9.792;2023-09-08T02:13:10;25.30;60.80
30244;DHT22;64022;53.652;9.792;2023-09-08T02:15:35;25.30;60.70
30244;DHT22;64022;53.652;9.792;2023-09-08T02:18:02;25.30;60.60
30244;DHT22;64022;53.652;9.792;2023-09-08T02:20:27;25.30;60.60
30244;DHT22;64022;53.652;9.792;2023-09-08T02:22:54;25.30;61.10
30244;DHT22;64022;53.652;9.792;2023-09-08T02:25:20;25.30;60.50
30244;DHT22;64022;53.652;9.792;2023-09-08T02:27:45;25.30;60.50
30244;DHT22;64022;53.652;9.792;2023-09-08T02:30:11;25.30;60.40
30244;DHT22;64022;53.652;9.792;2023-09-08T02:32:37;25.30;60.40
30244;DHT22;64022;53.652;9.792;2023-09-08T02:35:02;25.30;60.40
30244;DHT22;64022;53.652;9.792;2023-09-08T02:37:28;25.30;60.30
30244;DHT22;64022;53.652;9.792;2023-09-08T02:39:54;25.30;60.20
30244;DHT22;64022;53.652;9.792;2023-09-08T02:42:19;25.30;60.10
30244;DHT22;64022;53.652;9.792;2023-09-08T02:44:45;25.30;60.00
30244;DHT22;64022;53.652;9.792;2023-09-08T02:47:10;25.30;60.00
30244;DHT22;64022;53.652;9.792;2023-09-08T02:49:36;25.30;59.90
30244;DHT22;64022;53.652;9.792;2023-09-08T02:52:01;25.30;60.40
30244;DHT22;64022;53.652;9.792;2023-09-08T02:54:27;25.30;59.80
30244;DHT22;64022;53.652;9.792;2023-09-08T02:56:52;25.20;59.70
30244;DHT22;64022;53.652;9.792;2023-09-08T02:59:18;25.20;59.70
30244;DHT22;64022;53.652;9.792;2023-09-08T03:01:43;25.20;59.70
30244;DHT22;64022;53.652;9.792;2023-09-08T03:04:09;25.30;59.80
30244;DHT22;64022;53.652;9.792;2023-09-08T03:06:35;25.20;59.70
30244;DHT22;64022;53.652;9.792;2023-09-08T03:09:00;25.30;59.80
30244;DHT22;64022;53.652;9.792;2023-09-08T03:11:26;25.30;59.70
30244;DHT22;64022;53.652;9.792;2023-09-08T03:13:51;25.20;59.50
30244;DHT22;64022;53.652;9.792;2023-09-08T03:16:17;25.30;59.50
30244;DHT22;64022;53.652;9.792;2023-09-08T03:18:42;25.20;59.40
30244;DHT22;64022;53.652;9.792;2023-09-08T03:21:08;25.20;59.30
30244;DHT22;64022;53.652;9.792;2023-09-08T03:23:40;25.20;59.30
30244;DHT22;64022;53.652;9.792;2023-09-08T03:26:07;25.20;59.20
30244;DHT22;64022;53.652;9.792;2023-09-08T03:28:34;25.20;59.20
30244;DHT22;64022;53.652;9.792;2023-09-08T03:31:03;25.20;59.20
30244;DHT22;64022;53.652;9.792;2023-09-08T03:33:28;25.20;59.20
30244;DHT22;64022;53.652;9.792;2023-09-08T03:35:54;25.20;59.30
30244;DHT22;64022;53.652;9.792;2023-09-08T03:38:20;25.20;59.30
30244;DHT22;64022;53.652;9.792;2023-09-08T03:40:46;25.20;59.20
30244;DHT22;64022;53.652;9.792;2023-09-08T03:43:12;25.20;59.20
30244;DHT22;64022;53.652;9.792;2023-09-08T03:45:37;25.20;59.10
30244;DHT22;64022;53.652;9.792;2023-09-08T03:48:03;25.20;59.00
30244;DHT22;64022;53.652;9.792;2023-09-08T03:50:29;25.20;59.00
30244;DHT22;64022;53.652;9.792;2023-09-08T03:52:55;25.20;59.00
30244;DHT22;64022;53.652;9.792;2023-09-08T03:55:21;25.20;58.90
30244;DHT22;64022;53.652;9.792;2023-09-08T03:57:46;25.20;58.80
30244;DHT22;64022;53.652;9.792;2023-09-08T04:00:13;25.20;58.70
30244;DHT22;64022;53.652;9.792;2023-09-08T04:02:44;25.10;59.10
30244;DHT22;64022;53.652;9.792;2023-09-08T04:05:10;25.10;58.50
30244;DHT22;64022;53.652;9.792;2023-09-08T04:07:36;25.10;58.60
30244;DHT22;64022;53.652;9.792;2023-09-08T04:10:02;25.10;58.70
30244;DHT22;64022;53.652;9.792;2023-09-08T04:12:28;25.20;58.80
30244;DHT22;64022;53.652;9.792;2023-09-08T04:14:54;25.10;58.70
30244;DHT22;64022;53.652;9.792;2023-09-08T04:17:19;25.10;58.60
30244;DHT22;64022;53.652;9.792;2023-09-08T04:19:45;25.20;58.60
30244;DHT22;64022;53.652;9.792;2023-09-08T04:22:10;25.10;58.60
30244;DHT22;64022;53.652;9.792;2023-09-08T04:24:36;25.20;58.70
30244;DHT22;64022;53.652;9.792;2023-09-08T04:27:03;25.20;58.70
30244;DHT22;64022;53.652;9.792;2023-09-08T04:29:29;25.10;58.60
30244;DHT22;64022;53.652;9.792;2023-09-08T04:31:54;25.20;58.70
30244;DHT22;64022;53.652;9.792;2023-09-08T04:34:20;25.20;58.60
30244;DHT22;64022;53.652;9.792;2023-09-08T04:36:45;25.20;58.60
30244;DHT22;64022;53.652;9.792;2023-09-08T04:39:11;25.20;58.60
30244;DHT22;64022;53.652;9.792;2023-09-08T04:41:37;25.20;58.50
30244;DHT22;64022;53.652;9.792;2023-09-08T04:44:03;25.20;58.40
30244;DHT22;64022;53.652;9.792;2023-09-08T04:46:29;25.20;58.40
30244;DHT22;64022;53.652;9.792;2023-09-08T04:48:54;25.20;58.30
30244;DHT22;64022;53.652;9.792;2023-09-08T04:51:20;25.20;58.30
30244;DHT22;64022;53.652;9.792;2023-09-08T04:53:46;25.20;58.30
30244;DHT22;64022;53.652;9.792;2023-09-08T04:56:13;25.20;58.30
30244;DHT22;64022;53.652;9.792;2023-09-08T04:58:38;25.20;58.40
30244;DHT22;64022;53.652;9.792;2023-09-08T05:01:04;25.20;58.30
30244;DHT22;64022;53.652;9.792;2023-09-08T05:03:31;25.20;58.20
30244;DHT22;64022;53.652;9.792;2023-09-08T05:05:56;25.20;58.20
30244;DHT22;64022;53.652;9.792;2023-09-08T05:08:22;25.20;58.10
30244;DHT22;64022;53.652;9.792;2023-09-08T05:10:48;25.20;58.10
30244;DHT22;64022;53.652;9.792;2023-09-08T05:13:13;25.20;58.10
30244;DHT22;64022;53.652;9.792;2023-09-08T05:15:39;25.20;57.20
30244;DHT22;64022;53.652;9.792;2023-09-08T05:18:07;25.10;56.90
30244;DHT22;64022;53.652;9.792;2023-09-08T05:20:33;25.10;56.90
30244;DHT22;64022;53.652;9.792;2023-09-08T05:22:58;25.00;56.50
30244;DHT22;64022;53.652;9.792;2023-09-08T05:25:24;24.90;56.40
30244;DHT22;64022;53.652;9.792;2023-09-08T05:27:49;24.90;56.30
30244;DHT22;64022;53.652;9.792;2023-09-08T05:30:15;24.80;56.00
30244;DHT22;64022;53.652;9.792;2023-09-08T05:32:41;24.70;56.00
30244;DHT22;64022;53.652;9.792;2023-09-08T05:35:06;24.70;55.90
30244;DHT22;64022;53.652;9.792;2023-09-08T05:37:32;24.70;55.80
30244;DHT22;64022;53.652;9.792;2023-09-08T05:39:57;24.60;55.60
30244;DHT22;64022;53.652;9.792;2023-09-08T05:42:23;24.50;55.60
30244;DHT22;64022;53.652;9.792;2023-09-08T05:44:48;24.50;55.60
30244;DHT22;64022;53.652;9.792;2023-09-08T05:47:14;24.50;55.70
30244;DHT22;64022;53.652;9.792;2023-09-08T05:49:39;24.40;55.70
30244;DHT22;64022;53.652;9.792;2023-09-08T05:52:05;24.40;55.80
30244;DHT22;64022;53.652;9.792;2023-09-08T05:54:31;24.40;55.80
30244;DHT22;64022;53.652;9.792;2023-09-08T05:56:56;24.40;55.90
30244;DHT22;64022;53.652;9.792;2023-09-08T05:59:22;24.40;56.00
30244;DHT22;64022;53.652;9.792;2023-09-08T06:01:47;24.40;55.90
30244;DHT22;64022;53.652;9.792;2023-09-08T06:04:13;24.40;55.90
30244;DHT22;64022;53.652;9.792;2023-09-08T06:06:38;24.40;56.50
30244;DHT22;64022;53.652;9.792;2023-09-08T06:09:05;24.40;56.00
30244;DHT22;64022;53.652;9.792;2023-09-08T06:11:33;24.40;56.00
30244;DHT22;64022;53.652;9.792;2023-09-08T06:13:58;24.40;56.10
30244;DHT22;64022;53.652;9.792;2023-09-08T06:16:25;24.40;55.90
30244;DHT22;64022;53.652;9.792;2023-09-08T06:18:50;24.40;56.00
30244;DHT22;64022;53.652;9.792;2023-09-08T06:21:16;24.40;56.00
30244;DHT22;64022;53.652;9.792;2023-09-08T06:23:41;24.40;56.00
30244;DHT22;64022;53.652;9.792;2023-09-08T06:26:07;24.40;56.00
30244;DHT22;64022;53.652;9.792;2023-09-08T06:28:33;24.40;56.00
30244;DHT22;64022;53.652;9.792;2023-09-08T06:30:58;24.40;56.10
30244;DHT22;64022;53.652;9.792;2023-09-08T06:33:24;24.40;56.20
30244;DHT22;64022;53.652;9.792;2023-09-08T06:35:50;24.40;56.30
30244;DHT22;64022;53.652;9.792;2023-09-08T06:38:16;24.40;56.20
30244;DHT22;64022;53.652;9.792;2023-09-08T06:40:41;24.40;56.20
30244;DHT22;64022;53.652;9.792;2023-09-08T06:43:07;24.40;56.20
30244;DHT22;64022;53.652;9.792;2023-09-08T06:45:32;24.50;56.20
30244;DHT22;64022;53.652;9.792;2023-09-08T06:47:58;24.40;56.10
30244;DHT22;64022;53.652;9.792;2023-09-08T06:50:25;24.40;56.30
30244;DHT22;64022;53.652;9.792;2023-09-08T06:52:52;24.50;56.60
30244;DHT22;64022;53.652;9.792;2023-09-08T06:55:18;24.40;56.70
30244;DHT22;64022;53.652;9.792;2023-09-08T06:57:45;24.50;56.90
30244;DHT22;64022;53.652;9.792;2023-09-08T07:00:11;24.50;57.00
30244;DHT22;64022;53.652;9.792;2023-09-08T07:02:37;24.60;57.20
30244;DHT22;64022;53.652;9.792;2023-09-08T07:05:03;24.60;57.20
30244;DHT22;64022;53.652;9.792;2023-09-08T07:07:36;24.60;57.30
30244;DHT22;64022;53.652;9.792;2023-09-08T07:10:06;24.70;57.40
30244;DHT22;64022;53.652;9.792;2023-09-08T07:12:31;24.70;57.50
30244;DHT22;64022;53.652;9.792;2023-09-08T07:14:57;24.70;57.50
30244;DHT22;64022;53.652;9.792;2023-09-08T07:17:23;24.70;57.50
30244;DHT22;64022;53.652;9.792;2023-09-08T07:19:49;24.70;57.60
30244;DHT22;64022;53.652;9.792;2023-09-08T07:22:15;24.70;57.60
30244;DHT22;64022;53.652;9.792;2023-09-08T07:24:41;24.70;57.70
30244;DHT22;64022;53.652;9.792;2023-09-08T07:27:07;24.80;57.80
30244;DHT22;64022;53.652;9.792;2023-09-08T07:29:33;24.80;57.80
30244;DHT22;64022;53.652;9.792;2023-09-08T07:31:58;24.80;57.90
30244;DHT22;64022;53.652;9.792;2023-09-08T07:34:24;24.80;57.90
30244;DHT22;64022;53.652;9.792;2023-09-08T07:36:49;24.80;57.90
30244;DHT22;64022;53.652;9.792;2023-09-08T07:39:15;24.80;58.00
30244;DHT22;64022;53.652;9.792;2023-09-08T07:41:40;24.80;58.00
30244;DHT22;64022;53.652;9.792;2023-09-08T07:44:07;24.90;58.10
30244;DHT22;64022;53.652;9.792;2023-09-08T07:46:32;24.80;58.10
30244;DHT22;64022;53.652;9.792;2023-09-08T07:48:59;24.90;58.20
30244;DHT22;64022;53.652;9.792;2023-09-08T07:51:25;24.90;58.20
30244;DHT22;64022;53.652;9.792;2023-09-08T07:53:52;24.90;57.90
30244;DHT22;64022;53.652;9.792;2023-09-08T07:56:18;24.90;58.40
30244;DHT22;64022;53.652;9.792;2023-09-08T07:58:44;24.90;58.40
30244;DHT22;64022;53.652;9.792;2023-09-08T08:01:09;24.90;58.30
30244;DHT22;64022;53.652;9.792;2023-09-08T08:03:35;24.90;58.40
30244;DHT22;64022;53.652;9.792;2023-09-08T08:06:01;24.90;58.40
30244;DHT22;64022;53.652;9.792;2023-09-08T08:08:27;25.00;58.50
30244;DHT22;64022;53.652;9.792;2023-09-08T08:10:52;25.00;58.50
30244;DHT22;64022;53.652;9.792;2023-09-08T08:13:18;25.00;58.50
30244;DHT22;64022;53.652;9.792;2023-09-08T08:15:44;25.00;58.60
30244;DHT22;64022;53.652;9.792;2023-09-08T08:18:12;25.00;58.60
30244;DHT22;64022;53.652;9.792;2023-09-08T08:20:38;25.00;58.60
30244;DHT22;64022;53.652;9.792;2023-09-08T08:23:04;25.10;58.70
30244;DHT22;64022;53.652;9.792;2023-09-08T08:25:30;25.10;58.70
30244;DHT22;64022;53.652;9.792;2023-09-08T08:27:56;25.10;58.70
30244;DHT22;64022;53.652;9.792;2023-09-08T08:30:24;25.10;58.70
30244;DHT22;64022;53.652;9.792;2023-09-08T08:32:50;25.10;58.80
30244;DHT22;64022;53.652;9.792;2023-09-08T08:35:17;25.10;58.80
30244;DHT22;64022;53.652;9.792;2023-09-08T08:37:42;25.10;58.80
30244;DHT22;64022;53.652;9.792;2023-09-08T08:40:10;25.10;58.80
30244;DHT22;64022;53.652;9.792;2023-09-08T08:42:39;25.10;58.80
30244;DHT22;64022;53.652;9.792;2023-09-08T08:45:05;25.20;58.90
30244;DHT22;64022;53.652;9.792;2023-09-08T08:47:31;25.20;58.90
30244;DHT22;64022;53.652;9.792;2023-09-08T08:49:58;25.10;58.90
30244;DHT22;64022;53.652;9.792;2023-09-08T08:52:25;25.20;59.00
30244;DHT22;64022;53.652;9.792;2023-09-08T08:54:51;25.20;59.00
30244;DHT22;64022;53.652;9.792;2023-09-08T08:57:17;25.20;59.00
30244;DHT22;64022;53.652;9.792;2023-09-08T08:59:43;25.20;59.10
30244;DHT22;64022;53.652;9.792;2023-09-08T09:02:11;25.30;59.10
30244;DHT22;64022;53.652;9.792;2023-09-08T09:04:37;25.20;59.10
30244;DHT22;64022;53.652;9.792;2023-09-08T09:07:03;25.20;59.60
30244;DHT22;64022;53.652;9.792;2023-09-08T09:09:31;25.20;58.80
30244;DHT22;64022;53.652;9.792;2023-09-08T09:11:57;25.20;59.20
30244;DHT22;64022;53.652;9.792;2023-09-08T09:14:23;25.20;59.20
30244;DHT22;64022;53.652;9.792;2023-09-08T09:16:49;25.20;59.20
30244;DHT22;64022;53.652;9.792;2023-09-08T09:19:22;25.30;59.30
30244;DHT22;64022;53.652;9.792;2023-09-08T09:21:53;25.30;59.30
30244;DHT22;64022;53.652;9.792;2023-09-08T09:24:35;25.30;59.30
30244;DHT22;64022;53.652;9.792;2023-09-08T09:27:04;25.30;59.30
30244;DHT22;64022;53.652;9.792;2023-09-08T09:29:31;25.30;59.40
30244;DHT22;64022;53.652;9.792;2023-09-08T09:32:02;25.30;59.40
30244;DHT22;64022;53.652;9.792;2023-09-08T09:34:28;25.30;59.40
30244;DHT22;64022;53.652;9.792;2023-09-08T09:36:54;25.30;59.40
30244;DHT22;64022;53.652;9.792;2023-09-08T09:39:20;25.30;59.40
30244;DHT22;64022;53.652;9.792;2023-09-08T09:41:47;25.40;59.50
30244;DHT22;64022;53.652;9.792;2023-09-08T09:44:14;25.40;59.50
30244;DHT22;64022;53.652;9.792;2023-09-08T09:46:46;25.40;59.50
30244;DHT22;64022;53.652;9.792;2023-09-08T09:49:13;25.40;59.50
30244;DHT22;64022;53.652;9.792;2023-09-08T09:51:42;25.30;59.50
30244;DHT22;64022;53.652;9.792;2023-09-08T09:54:08;25.30;59.20
30244;DHT22;64022;53.652;9.792;2023-09-08T09:56:37;25.30;59.60
30244;DHT22;64022;53.652;9.792;2023-09-08T09:59:03;25.40;59.60
30244;DHT22;64022;53.652;9.792;2023-09-08T10:01:29;25.40;59.60
30244;DHT22;64022;53.652;9.792;2023-09-08T10:03:55;25.40;59.60
30244;DHT22;64022;53.652;9.792;2023-09-08T10:06:21;25.40;59.60
30244;DHT22;64022;53.652;9.792;2023-09-08T10:08:48;25.40;59.60
30244;DHT22;64022;53.652;9.792;2023-09-08T10:11:15;25.50;59.70
30244;DHT22;64022;53.652;9.792;2023-09-08T10:13:46;25.40;59.60
30244;DHT22;64022;53.652;9.792;2023-09-08T10:16:16;25.40;59.60
30244;DHT22;64022;53.652;9.792;2023-09-08T10:18:46;25.40;59.70
30244;DHT22;64022;53.652;9.792;2023-09-08T10:21:13;25.50;59.70
30244;DHT22;64022;53.652;9.792;2023-09-08T10:23:44;25.40;59.70
30244;DHT22;64022;53.652;9.792;2023-09-08T10:26:14;25.50;59.80
30244;DHT22;64022;53.652;9.792;2023-09-08T10:28:42;25.50;59.80
30244;DHT22;64022;53.652;9.792;2023-09-08T10:31:08;25.50;59.80
30244;DHT22;64022;53.652;9.792;2023-09-08T10:33:34;25.50;59.80
30244;DHT22;64022;53.652;9.792;2023-09-08T10:36:01;25.50;59.80
30244;DHT22;64022;53.652;9.792;2023-09-08T10:38:32;25.50;59.80
30244;DHT22;64022;53.652;9.792;2023-09-08T10:44:01;25.50;59.70
30244;DHT22;64022;53.652;9.792;2023-09-08T10:46:28;25.50;59.70
30244;DHT22;64022;53.652;9.792;2023-09-08T10:49:04;25.50;59.80
30244;DHT22;64022;53.652;9.792;2023-09-08T10:51:32;25.50;59.80
30244;DHT22;64022;53.652;9.792;2023-09-08T10:53:58;25.50;59.90
30244;DHT22;64022;53.652;9.792;2023-09-08T10:56:53;25.50;59.90
30244;DHT22;64022;53.652;9.792;2023-09-08T10:59:21;25.50;59.80
30244;DHT22;64022;53.652;9.792;2023-09-08T11:01:47;25.50;59.90
30244;DHT22;64022;53.652;9.792;2023-09-08T11:04:13;25.50;59.90
30244;DHT22;64022;53.652;9.792;2023-09-08T11:06:44;25.50;59.90
30244;DHT22;64022;53.652;9.792;2023-09-08T11:09:09;25.50;59.90
30244;DHT22;64022;53.652;9.792;2023-09-08T11:11:35;25.60;60.00
30244;DHT22;64022;53.652;9.792;2023-09-08T11:14:02;25.50;59.90
30244;DHT22;64022;53.652;9.792;2023-09-08T11:16:28;25.60;60.00
30244;DHT22;64022;53.652;9.792;2023-09-08T11:18:56;25.50;60.00
30244;DHT22;64022;53.652;9.792;2023-09-08T11:21:22;25.50;59.90
30244;DHT22;64022;53.652;9.792;2023-09-08T11:23:48;25.60;60.00
30244;DHT22;64022;53.652;9.792;2023-09-08T11:26:13;25.60;60.00
30244;DHT22;64022;53.652;9.792;2023-09-08T11:28:41;25.60;60.00
30244;DHT22;64022;53.652;9.792;2023-09-08T11:31:07;25.60;60.00
30244;DHT22;64022;53.652;9.792;2023-09-08T11:33:34;25.60;60.00
30244;DHT22;64022;53.652;9.792;2023-09-08T11:36:13;25.60;60.00
30244;DHT22;64022;53.652;9.792;2023-09-08T11:38:43;25.60;60.00
30244;DHT22;64022;53.652;9.792;2023-09-08T11:41:09;25.60;60.00
30244;DHT22;64022;53.652;9.792;2023-09-08T11:43:36;25.60;60.00
30244;DHT22;64022;53.652;9.792;2023-09-08T11:46:02;25.60;60.00
30244;DHT22;64022;53.652;9.792;2023-09-08T11:48:28;25.60;60.00
30244;DHT22;64022;53.652;9.792;2023-09-08T11:50:54;25.60;60.00
30244;DHT22;64022;53.652;9.792;2023-09-08T11:53:21;25.60;60.00
30244;DHT22;64022;53.652;9.792;2023-09-08T11:55:47;25.70;60.10
30244;DHT22;64022;53.652;9.792;2023-09-08T11:58:13;25.60;60.10
30244;DHT22;64022;53.652;9.792;2023-09-08T12:00:39;25.70;60.20
30244;DHT22;64022;53.652;9.792;2023-09-08T12:03:10;25.70;60.10
30244;DHT22;64022;53.652;9.792;2023-09-08T12:05:36;25.70;60.20
30244;DHT22;64022;53.652;9.792;2023-09-08T12:08:04;25.70;60.20
30244;DHT22;64022;53.652;9.792;2023-09-08T12:10:40;25.70;60.20
30244;DHT22;64022;53.652;9.792;2023-09-08T12:13:06;25.70;60.10
30244;DHT22;64022;53.652;9.792;2023-09-08T12:15:35;25.70;60.20
30244;DHT22;64022;53.652;9.792;2023-09-08T12:18:03;25.70;60.20
30244;DHT22;64022;53.652;9.792;2023-09-08T12:20:29;25.70;60.20
30244;DHT22;64022;53.652;9.792;2023-09-08T12:22:58;25.70;60.20
30244;DHT22;64022;53.652;9.792;2023-09-08T12:25:24;25.70;60.20
30244;DHT22;64022;53.652;9.792;2023-09-08T12:27:50;25.70;60.20
30244;DHT22;64022;53.652;9.792;2023-09-08T12:30:22;25.70;60.20
30244;DHT22;64022;53.652;9.792;2023-09-08T12:32:56;25.70;60.20
30244;DHT22;64022;53.652;9.792;2023-09-08T12:35:22;25.70;60.20
30244;DHT22;64022;53.652;9.792;2023-09-08T12:37:58;25.70;60.20
30244;DHT22;64022;53.652;9.792;2023-09-08T12:40:26;25.80;60.30
30244;DHT22;64022;53.652;9.792;2023-09-08T12:42:52;25.80;60.30
30244;DHT22;64022;53.652;9.792;2023-09-08T12:45:18;25.70;60.20
30244;DHT22;64022;53.652;9.792;2023-09-08T12:47:43;25.70;60.20
30244;DHT22;64022;53.652;9.792;2023-09-08T12:50:09;25.80;60.30
30244;DHT22;64022;53.652;9.792;2023-09-08T12:52:35;25.70;60.30
30244;DHT22;64022;53.652;9.792;2023-09-08T12:55:01;25.80;60.30
30244;DHT22;64022;53.652;9.792;2023-09-08T12:57:26;25.80;60.30
30244;DHT22;64022;53.652;9.792;2023-09-08T12:59:52;25.80;60.30
30244;DHT22;64022;53.652;9.792;2023-09-08T13:02:17;25.80;60.40
30244;DHT22;64022;53.652;9.792;2023-09-08T13:04:43;25.80;60.40
30244;DHT22;64022;53.652;9.792;2023-09-08T13:07:14;25.80;60.40
30244;DHT22;64022;53.652;9.792;2023-09-08T13:09:40;25.80;60.40
30244;DHT22;64022;53.652;9.792;2023-09-08T13:12:05;25.80;60.40
30244;DHT22;64022;53.652;9.792;2023-09-08T13:14:31;25.80;60.40
30244;DHT22;64022;53.652;9.792;2023-09-08T13:16:57;25.80;60.40
30244;DHT22;64022;53.652;9.792;2023-09-08T13:19:22;25.80;60.40
30244;DHT22;64022;53.652;9.792;2023-09-08T13:21:48;25.80;60.40
30244;DHT22;64022;53.652;9.792;2023-09-08T13:24:13;25.80;60.40
30244;DHT22;64022;53.652;9.792;2023-09-08T13:26:39;25.80;60.40
30244;DHT22;64022;53.652;9.792;2023-09-08T13:29:04;25.80;60.40
30244;DHT22;64022;53.652;9.792;2023-09-08T13:31:30;25.80;60.40
30244;DHT22;64022;53.652;9.792;2023-09-08T13:33:55;25.80;60.40
30244;DHT22;64022;53.652;9.792;2023-09-08T13:36:21;25.80;60.40
30244;DHT22;64022;53.652;9.792;2023-09-08T13:38:46;25.80;60.40
30244;DHT22;64022;53.652;9.792;2023-09-08T13:41:12;25.80;60.50
30244;DHT22;64022;53.652;9.792;2023-09-08T13:43:37;25.80;60.50
30244;DHT22;64022;53.652;9.792;2023-09-08T13:46:03;25.80;60.50
30244;DHT22;64022;53.652;9.792;2023-09-08T13:48:28;25.90;60.50
30244;DHT22;64022;53.652;9.792;2023-09-08T13:50:54;25.90;60.50
30244;DHT22;64022;53.652;9.792;2023-09-08T13:53:19;25.80;60.50
30244;DHT22;64022;53.652;9.792;2023-09-08T13:55:45;25.80;60.50
30244;DHT22;64022;53.652;9.792;2023-09-08T13:58:11;25.80;60.50
30244;DHT22;64022;53.652;9.792;2023-09-08T14:00:37;25.80;60.50
30244;DHT22;64022;53.652;9.792;2023-09-08T14:03:04;25.90;60.60
30244;DHT22;64022;53.652;9.792;2023-09-08T14:05:29;25.90;60.60
30244;DHT22;64022;53.652;9.792;2023-09-08T14:07:55;25.90;60.60
30244;DHT22;64022;53.652;9.792;2023-09-08T14:10:21;25.90;60.60
30244;DHT22;64022;53.652;9.792;2023-09-08T14:12:46;25.90;60.60
30244;DHT22;64022;53.652;9.792;2023-09-08T14:15:12;25.90;60.60
30244;DHT22;64022;53.652;9.792;2023-09-08T14:17:40;25.90;60.60
30244;DHT22;64022;53.652;9.792;2023-09-08T14:20:06;25.90;61.10
30244;DHT22;64022;53.652;9.792;2023-09-08T14:22:32;25.90;60.60
30244;DHT22;64022;53.652;9.792;2023-09-08T14:24:58;25.90;60.40
30244;DHT22;64022;53.652;9.792;2023-09-08T14:27:24;25.90;61.30
30244;DHT22;64022;53.652;9.792;2023-09-08T14:29:49;25.90;60.70
30244;DHT22;64022;53.652;9.792;2023-09-08T14:32:15;25.90;60.70
30244;DHT22;64022;53.652;9.792;2023-09-08T14:34:40;25.90;60.70
30244;DHT22;64022;53.652;9.792;2023-09-08T14:37:06;26.00;60.80
30244;DHT22;64022;53.652;9.792;2023-09-08T14:39:32;25.90;60.70
30244;DHT22;64022;53.652;9.792;2023-09-08T14:41:58;25.90;60.70
30244;DHT22;64022;53.652;9.792;2023-09-08T14:44:23;25.90;60.70
30244;DHT22;64022;53.652;9.792;2023-09-08T14:46:50;25.90;60.70
30244;DHT22;64022;53.652;9.792;2023-09-08T14:49:15;26.00;60.80
30244;DHT22;64022;53.652;9.792;2023-09-08T14:51:41;26.00;60.80
30244;DHT22;64022;53.652;9.792;2023-09-08T14:54:06;26.00;60.80
30244;DHT22;64022;53.652;9.792;2023-09-08T14:56:32;26.00;60.80
30244;DHT22;64022;53.652;9.792;2023-09-08T14:58:58;26.00;60.80
30244;DHT22;64022;53.652;9.792;2023-09-08T15:01:25;26.00;60.80
30244;DHT22;64022;53.652;9.792;2023-09-08T15:03:54;26.00;60.60
30244;DHT22;64022;53.652;9.792;2023-09-08T15:06:22;26.00;60.90
30244;DHT22;64022;53.652;9.792;2023-09-08T15:08:48;26.00;60.90
30244;DHT22;64022;53.652;9.792;2023-09-08T15:11:14;26.00;60.90
30244;DHT22;64022;53.652;9.792;2023-09-08T15:13:40;26.00;60.80
30244;DHT22;64022;53.652;9.792;2023-09-08T15:16:06;26.00;60.80
30244;DHT22;64022;53.652;9.792;2023-09-08T15:18:32;26.10;60.90
30244;DHT22;64022;53.652;9.792;2023-09-08T15:20:58;26.10;60.90
30244;DHT22;64022;53.652;9.792;2023-09-08T15:23:23;26.10;60.90
30244;DHT22;64022;53.652;9.792;2023-09-08T15:25:54;26.10;60.90
30244;DHT22;64022;53.652;9.792;2023-09-08T15:28:25;26.10;60.90
30244;DHT22;64022;53.652;9.792;2023-09-08T15:30:53;26.10;61.00